sensor_id;sensor_type;location;lat;lon;timestamp;P1;durP1;ratioP1;P2;durP2;ratioP2
77726;SDS011;68312;53.502;10.030;2023-06-14T00:00:52;5.90;;;2.10;;
77726;SDS011;68312;53.502;10.030;2023-06-14T00:03:18;5.00;;;2.33;;
77726;SDS011;68312;53.502;10.030;2023-06-14T00:05:44;7.30;;;2.42;;
77726;SDS011;68312;53.502;10.030;2023-06-14T00:08:09;4.40;;;2.30;;
77726;SDS011;68312;53.502;10.030;2023-06-14T00:10:35;4.53;;;2.00;;
77726;SDS011;68312;53.502;10.030;2023-06-14T00:13:02;4.25;;;1.95;;
77726;SDS011;68312;53.502;10.030;2023-06-14T00:15:28;6.88;;;2.30;;
77726;SDS011;68312;53.502;10.030;2023-06-14T00:17:55;4.95;;;2.22;;
77726;SDS011;68312;53.502;10.030;2023-06-14T00:20:25;6.65;;;2.33;;
77726;SDS011;68312;53.502;10.030;2023-06-14T00:22:50;5.22;;;2.33;;
77726;SDS011;68312;53.502;10.030;2023-06-14T00:25:16;6.50;;;2.85;;
77726;SDS011;68312;53.502;10.030;2023-06-14T00:27:41;10.15;;;2.75;;
77726;SDS011;68312;53.502;10.030;2023-06-14T00:30:07;5.10;;;2.25;;
77726;SDS011;68312;53.502;10.030;2023-06-14T00:32:33;5.03;;;2.03;;
77726;SDS011;68312;53.502;10.030;2023-06-14T00:34:59;3.78;;;2.10;;
77726;SDS011;68312;53.502;10.030;2023-06-14T00:37:24;7.32;;;2.28;;
77726;SDS011;68312;53.502;10.030;2023-06-14T00:39:49;4.93;;;2.22;;
77726;SDS011;68312;53.502;10.030;2023-06-14T00:42:24;5.38;;;2.22;;
77726;SDS011;68312;53.502;10.030;2023-06-14T00:44:52;4.00;;;2.28;;
77726;SDS011;68312;53.502;10.030;2023-06-14T00:47:18;3.85;;;2.03;;
77726;SDS011;68312;53.502;10.030;2023-06-14T00:49:47;3.08;;;2.08;;
77726;SDS011;68312;53.502;10.030;2023-06-14T00:52:15;5.22;;;2.95;;
77726;SDS011;68312;53.502;10.030;2023-06-14T00:54:42;4.28;;;2.35;;
77726;SDS011;68312;53.502;10.030;2023-06-14T00:57:09;4.38;;;2.42;;
77726;SDS011;68312;53.502;10.030;2023-06-14T00:59:45;5.43;;;2.38;;
77726;SDS011;68312;53.502;10.030;2023-06-14T01:02:13;3.67;;;2.35;;
77726;SDS011;68312;53.502;10.030;2023-06-14T01:04:40;8.30;;;2.83;;
77726;SDS011;68312;53.502;10.030;2023-06-14T01:07:54;4.72;;;2.40;;
77726;SDS011;68312;53.502;10.030;2023-06-14T01:10:25;3.72;;;2.50;;
77726;SDS011;68312;53.502;10.030;2023-06-14T01:16:05;4.55;;;2.40;;
77726;SDS011;68312;53.502;10.030;2023-06-14T01:18:33;4.22;;;2.50;;
77726;SDS011;68312;53.502;10.030;2023-06-14T01:20:59;4.38;;;2.45;;
77726;SDS011;68312;53.502;10.030;2023-06-14T01:23:25;3.50;;;1.98;;
77726;SDS011;68312;53.502;10.030;2023-06-14T01:25:51;5.28;;;2.50;;
77726;SDS011;68312;53.502;10.030;2023-06-14T01:28:16;3.47;;;2.10;;
77726;SDS011;68312;53.502;10.030;2023-06-14T01:30:42;6.50;;;2.78;;
77726;SDS011;68312;53.502;10.030;2023-06-14T01:33:18;4.57;;;2.60;;
77726;SDS011;68312;53.502;10.030;2023-06-14T01:35:50;4.70;;;2.60;;
77726;SDS011;68312;53.502;10.030;2023-06-14T01:38:19;6.63;;;3.25;;
77726;SDS011;68312;53.502;10.030;2023-06-14T01:40:49;4.38;;;2.40;;
77726;SDS011;68312;53.502;10.030;2023-06-14T01:43:18;5.60;;;2.50;;
77726;SDS011;68312;53.502;10.030;2023-06-14T01:45:45;4.57;;;2.40;;
77726;SDS011;68312;53.502;10.030;2023-06-14T01:48:13;5.03;;;2.65;;
77726;SDS011;68312;53.502;10.030;2023-06-14T01:50:39;5.10;;;2.63;;
77726;SDS011;68312;53.502;10.030;2023-06-14T01:53:08;4.90;;;2.22;;
77726;SDS011;68312;53.502;10.030;2023-06-14T01:55:35;4.38;;;2.30;;
77726;SDS011;68312;53.502;10.030;2023-06-14T01:58:01;5.00;;;2.80;;
77726;SDS011;68312;53.502;10.030;2023-06-14T02:00:26;4.03;;;2.20;;
77726;SDS011;68312;53.502;10.030;2023-06-14T02:02:52;5.07;;;2.40;;
77726;SDS011;68312;53.502;10.030;2023-06-14T02:05:17;6.22;;;2.67;;
77726;SDS011;68312;53.502;10.030;2023-06-14T02:07:43;4.00;;;2.38;;
77726;SDS011;68312;53.502;10.030;2023-06-14T02:10:08;5.50;;;2.50;;
77726;SDS011;68312;53.502;10.030;2023-06-14T02:12:34;4.40;;;2.60;;
77726;SDS011;68312;53.502;10.030;2023-06-14T02:14:59;4.80;;;2.90;;
77726;SDS011;68312;53.502;10.030;2023-06-14T02:17:25;5.57;;;2.58;;
77726;SDS011;68312;53.502;10.030;2023-06-14T02:19:50;6.60;;;2.65;;
77726;SDS011;68312;53.502;10.030;2023-06-14T02:22:16;5.47;;;2.75;;
77726;SDS011;68312;53.502;10.030;2023-06-14T02:24:42;5.57;;;2.65;;
77726;SDS011;68312;53.502;10.030;2023-06-14T02:27:08;5.50;;;2.50;;
77726;SDS011;68312;53.502;10.030;2023-06-14T02:29:34;7.25;;;3.20;;
77726;SDS011;68312;53.502;10.030;2023-06-14T02:32:00;6.65;;;3.25;;
77726;SDS011;68312;53.502;10.030;2023-06-14T02:34:25;7.45;;;3.17;;
77726;SDS011;68312;53.502;10.030;2023-06-14T02:36:50;5.50;;;2.70;;
77726;SDS011;68312;53.502;10.030;2023-06-14T02:39:16;6.85;;;3.47;;
77726;SDS011;68312;53.502;10.030;2023-06-14T02:41:41;5.07;;;2.90;;
77726;SDS011;68312;53.502;10.030;2023-06-14T02:44:07;6.28;;;3.10;;
77726;SDS011;68312;53.502;10.030;2023-06-14T02:46:32;6.63;;;3.00;;
77726;SDS011;68312;53.502;10.030;2023-06-14T02:48:58;5.60;;;3.08;;
77726;SDS011;68312;53.502;10.030;2023-06-14T02:51:24;7.15;;;2.78;;
77726;SDS011;68312;53.502;10.030;2023-06-14T02:53:50;6.20;;;2.80;;
77726;SDS011;68312;53.502;10.030;2023-06-14T02:56:15;5.13;;;3.00;;
77726;SDS011;68312;53.502;10.030;2023-06-14T02:58:41;5.22;;;2.65;;
77726;SDS011;68312;53.502;10.030;2023-06-14T03:01:06;5.47;;;3.33;;
77726;SDS011;68312;53.502;10.030;2023-06-14T03:03:32;4.03;;;2.33;;
77726;SDS011;68312;53.502;10.030;2023-06-14T03:05:57;5.22;;;2.53;;
77726;SDS011;68312;53.502;10.030;2023-06-14T03:08:23;5.18;;;2.50;;
77726;SDS011;68312;53.502;10.030;2023-06-14T03:10:48;6.97;;;2.63;;
77726;SDS011;68312;53.502;10.030;2023-06-14T03:13:17;6.00;;;3.03;;
77726;SDS011;68312;53.502;10.030;2023-06-14T03:15:42;4.60;;;2.70;;
77726;SDS011;68312;53.502;10.030;2023-06-14T03:18:08;7.38;;;3.03;;
77726;SDS011;68312;53.502;10.030;2023-06-14T03:20:34;5.18;;;2.78;;
77726;SDS011;68312;53.502;10.030;2023-06-14T03:23:03;6.55;;;2.78;;
77726;SDS011;68312;53.502;10.030;2023-06-14T03:25:29;8.35;;;3.17;;
77726;SDS011;68312;53.502;10.030;2023-06-14T03:27:55;6.18;;;2.85;;
77726;SDS011;68312;53.502;10.030;2023-06-14T03:30:21;6.95;;;3.13;;
77726;SDS011;68312;53.502;10.030;2023-06-14T03:32:47;5.78;;;2.78;;
77726;SDS011;68312;53.502;10.030;2023-06-14T03:35:12;7.57;;;3.40;;
77726;SDS011;68312;53.502;10.030;2023-06-14T03:37:38;6.53;;;3.00;;
77726;SDS011;68312;53.502;10.030;2023-06-14T03:40:04;6.03;;;3.35;;
77726;SDS011;68312;53.502;10.030;2023-06-14T03:42:30;8.60;;;3.72;;
77726;SDS011;68312;53.502;10.030;2023-06-14T03:44:56;5.57;;;2.90;;
77726;SDS011;68312;53.502;10.030;2023-06-14T03:47:21;7.45;;;3.20;;
77726;SDS011;68312;53.502;10.030;2023-06-14T03:49:46;9.43;;;3.17;;
77726;SDS011;68312;53.502;10.030;2023-06-14T03:52:12;6.05;;;2.95;;
77726;SDS011;68312;53.502;10.030;2023-06-14T03:54:38;5.15;;;2.75;;
77726;SDS011;68312;53.502;10.030;2023-06-14T03:57:03;7.40;;;2.92;;
77726;SDS011;68312;53.502;10.030;2023-06-14T03:59:29;6.75;;;3.40;;
77726;SDS011;68312;53.502;10.030;2023-06-14T04:01:54;7.50;;;3.30;;
77726;SDS011;68312;53.502;10.030;2023-06-14T04:04:20;7.40;;;3.03;;
77726;SDS011;68312;53.502;10.030;2023-06-14T04:06:46;6.88;;;2.97;;
77726;SDS011;68312;53.502;10.030;2023-06-14T04:09:11;8.63;;;3.75;;
77726;SDS011;68312;53.502;10.030;2023-06-14T04:11:36;5.75;;;3.05;;
77726;SDS011;68312;53.502;10.030;2023-06-14T04:14:02;4.38;;;2.65;;
77726;SDS011;68312;53.502;10.030;2023-06-14T04:16:28;7.45;;;3.28;;
77726;SDS011;68312;53.502;10.030;2023-06-14T04:18:56;4.88;;;3.05;;
77726;SDS011;68312;53.502;10.030;2023-06-14T04:21:22;6.72;;;3.33;;
77726;SDS011;68312;53.502;10.030;2023-06-14T04:23:47;6.85;;;3.08;;
77726;SDS011;68312;53.502;10.030;2023-06-14T04:26:13;6.57;;;3.30;;
77726;SDS011;68312;53.502;10.030;2023-06-14T04:28:38;6.95;;;3.58;;
77726;SDS011;68312;53.502;10.030;2023-06-14T04:31:03;6.35;;;3.40;;
77726;SDS011;68312;53.502;10.030;2023-06-14T04:33:29;8.77;;;3.50;;
77726;SDS011;68312;53.502;10.030;2023-06-14T04:35:54;6.20;;;3.30;;
77726;SDS011;68312;53.502;10.030;2023-06-14T04:38:20;6.28;;;3.28;;
77726;SDS011;68312;53.502;10.030;2023-06-14T04:40:45;6.85;;;3.42;;
77726;SDS011;68312;53.502;10.030;2023-06-14T04:43:11;7.43;;;3.22;;
77726;SDS011;68312;53.502;10.030;2023-06-14T04:45:36;9.65;;;3.75;;
77726;SDS011;68312;53.502;10.030;2023-06-14T04:48:02;6.68;;;3.13;;
77726;SDS011;68312;53.502;10.030;2023-06-14T04:50:28;9.48;;;3.35;;
77726;SDS011;68312;53.502;10.030;2023-06-14T04:52:53;10.93;;;3.78;;
77726;SDS011;68312;53.502;10.030;2023-06-14T04:55:19;10.65;;;3.63;;
77726;SDS011;68312;53.502;10.030;2023-06-14T04:57:44;8.68;;;3.47;;
77726;SDS011;68312;53.502;10.030;2023-06-14T05:00:10;8.73;;;3.33;;
77726;SDS011;68312;53.502;10.030;2023-06-14T05:02:36;6.93;;;3.45;;
77726;SDS011;68312;53.502;10.030;2023-06-14T05:05:01;5.72;;;3.08;;
77726;SDS011;68312;53.502;10.030;2023-06-14T05:07:27;6.32;;;3.47;;
77726;SDS011;68312;53.502;10.030;2023-06-14T05:09:53;10.13;;;2.88;;
77726;SDS011;68312;53.502;10.030;2023-06-14T05:12:18;8.77;;;3.05;;
77726;SDS011;68312;53.502;10.030;2023-06-14T05:14:44;9.35;;;3.53;;
77726;SDS011;68312;53.502;10.030;2023-06-14T05:17:10;9.35;;;3.05;;
77726;SDS011;68312;53.502;10.030;2023-06-14T05:19:36;7.97;;;3.42;;
77726;SDS011;68312;53.502;10.030;2023-06-14T05:22:01;5.85;;;3.05;;
77726;SDS011;68312;53.502;10.030;2023-06-14T05:24:27;5.57;;;3.00;;
77726;SDS011;68312;53.502;10.030;2023-06-14T05:26:52;7.80;;;3.47;;
77726;SDS011;68312;53.502;10.030;2023-06-14T05:29:18;7.95;;;3.10;;
77726;SDS011;68312;53.502;10.030;2023-06-14T05:31:43;5.82;;;2.70;;
77726;SDS011;68312;53.502;10.030;2023-06-14T05:34:09;5.57;;;2.95;;
77726;SDS011;68312;53.502;10.030;2023-06-14T05:36:34;7.80;;;3.10;;
77726;SDS011;68312;53.502;10.030;2023-06-14T05:39:00;4.85;;;2.72;;
77726;SDS011;68312;53.502;10.030;2023-06-14T05:41:25;8.73;;;3.30;;
77726;SDS011;68312;53.502;10.030;2023-06-14T05:43:52;4.43;;;2.65;;
77726;SDS011;68312;53.502;10.030;2023-06-14T05:46:20;10.98;;;2.90;;
77726;SDS011;68312;53.502;10.030;2023-06-14T05:48:47;6.65;;;2.92;;
77726;SDS011;68312;53.502;10.030;2023-06-14T05:51:13;3.90;;;2.35;;
77726;SDS011;68312;53.502;10.030;2023-06-14T05:53:39;7.90;;;2.97;;
77726;SDS011;68312;53.502;10.030;2023-06-14T05:56:04;6.90;;;3.42;;
77726;SDS011;68312;53.502;10.030;2023-06-14T05:58:30;5.75;;;2.38;;
77726;SDS011;68312;53.502;10.030;2023-06-14T06:00:55;6.07;;;2.95;;
77726;SDS011;68312;53.502;10.030;2023-06-14T06:03:21;5.80;;;2.90;;
77726;SDS011;68312;53.502;10.030;2023-06-14T06:05:46;7.18;;;3.05;;
77726;SDS011;68312;53.502;10.030;2023-06-14T06:08:13;5.28;;;2.53;;
77726;SDS011;68312;53.502;10.030;2023-06-14T06:10:38;5.22;;;2.75;;
77726;SDS011;68312;53.502;10.030;2023-06-14T06:13:03;6.30;;;3.00;;
77726;SDS011;68312;53.502;10.030;2023-06-14T06:15:29;6.25;;;2.70;;
77726;SDS011;68312;53.502;10.030;2023-06-14T06:17:54;5.75;;;2.72;;
77726;SDS011;68312;53.502;10.030;2023-06-14T06:20:20;10.75;;;3.13;;
77726;SDS011;68312;53.502;10.030;2023-06-14T06:22:46;5.57;;;2.88;;
77726;SDS011;68312;53.502;10.030;2023-06-14T06:25:11;7.90;;;3.08;;
77726;SDS011;68312;53.502;10.030;2023-06-14T06:27:36;9.00;;;3.28;;
77726;SDS011;68312;53.502;10.030;2023-06-14T06:30:02;9.15;;;2.63;;
77726;SDS011;68312;53.502;10.030;2023-06-14T06:32:28;4.85;;;2.90;;
77726;SDS011;68312;53.502;10.030;2023-06-14T06:34:53;3.78;;;2.42;;
77726;SDS011;68312;53.502;10.030;2023-06-14T06:37:19;8.30;;;2.80;;
77726;SDS011;68312;53.502;10.030;2023-06-14T06:39:44;4.57;;;2.30;;
77726;SDS011;68312;53.502;10.030;2023-06-14T06:42:12;6.68;;;2.47;;
77726;SDS011;68312;53.502;10.030;2023-06-14T06:44:37;5.00;;;2.53;;
77726;SDS011;68312;53.502;10.030;2023-06-14T06:47:03;5.28;;;2.97;;
77726;SDS011;68312;53.502;10.030;2023-06-14T06:49:29;6.25;;;2.53;;
77726;SDS011;68312;53.502;10.030;2023-06-14T06:52:01;10.20;;;3.00;;
77726;SDS011;68312;53.502;10.030;2023-06-14T06:54:30;4.03;;;2.47;;
77726;SDS011;68312;53.502;10.030;2023-06-14T06:56:56;4.13;;;2.33;;
77726;SDS011;68312;53.502;10.030;2023-06-14T06:59:23;7.25;;;2.55;;
77726;SDS011;68312;53.502;10.030;2023-06-14T07:01:48;4.35;;;2.60;;
77726;SDS011;68312;53.502;10.030;2023-06-14T07:04:14;3.65;;;2.08;;
77726;SDS011;68312;53.502;10.030;2023-06-14T07:06:39;5.03;;;2.25;;
77726;SDS011;68312;53.502;10.030;2023-06-14T07:09:07;2.90;;;2.08;;
77726;SDS011;68312;53.502;10.030;2023-06-14T07:11:33;4.28;;;2.08;;
77726;SDS011;68312;53.502;10.030;2023-06-14T07:13:59;5.32;;;2.03;;
77726;SDS011;68312;53.502;10.030;2023-06-14T07:16:25;4.72;;;2.45;;
77726;SDS011;68312;53.502;10.030;2023-06-14T07:18:50;3.40;;;2.10;;
77726;SDS011;68312;53.502;10.030;2023-06-14T07:21:16;4.22;;;2.20;;
77726;SDS011;68312;53.502;10.030;2023-06-14T07:23:41;5.35;;;1.98;;
77726;SDS011;68312;53.502;10.030;2023-06-14T07:26:07;3.70;;;1.80;;
77726;SDS011;68312;53.502;10.030;2023-06-14T07:28:32;4.38;;;1.90;;
77726;SDS011;68312;53.502;10.030;2023-06-14T07:30:58;5.07;;;2.08;;
77726;SDS011;68312;53.502;10.030;2023-06-14T07:33:23;4.22;;;2.25;;
77726;SDS011;68312;53.502;10.030;2023-06-14T07:35:49;3.30;;;2.13;;
77726;SDS011;68312;53.502;10.030;2023-06-14T07:38:14;3.60;;;2.17;;
77726;SDS011;68312;53.502;10.030;2023-06-14T07:40:40;4.25;;;1.65;;
77726;SDS011;68312;53.502;10.030;2023-06-14T07:43:05;3.47;;;1.83;;
77726;SDS011;68312;53.502;10.030;2023-06-14T07:45:31;8.50;;;2.20;;
77726;SDS011;68312;53.502;10.030;2023-06-14T07:47:56;4.55;;;1.95;;
77726;SDS011;68312;53.502;10.030;2023-06-14T07:50:22;4.25;;;2.05;;
77726;SDS011;68312;53.502;10.030;2023-06-14T07:52:48;5.72;;;2.10;;
77726;SDS011;68312;53.502;10.030;2023-06-14T07:55:13;3.75;;;2.25;;
77726;SDS011;68312;53.502;10.030;2023-06-14T07:57:39;4.03;;;2.00;;
77726;SDS011;68312;53.502;10.030;2023-06-14T08:00:04;3.67;;;1.90;;
77726;SDS011;68312;53.502;10.030;2023-06-14T08:02:31;4.68;;;2.05;;
77726;SDS011;68312;53.502;10.030;2023-06-14T08:04:56;3.88;;;1.80;;
77726;SDS011;68312;53.502;10.030;2023-06-14T08:07:22;5.35;;;2.00;;
77726;SDS011;68312;53.502;10.030;2023-06-14T08:09:47;4.93;;;1.90;;
77726;SDS011;68312;53.502;10.030;2023-06-14T08:12:13;3.20;;;1.95;;
77726;SDS011;68312;53.502;10.030;2023-06-14T08:14:39;3.33;;;1.95;;
77726;SDS011;68312;53.502;10.030;2023-06-14T08:17:05;5.95;;;2.13;;
77726;SDS011;68312;53.502;10.030;2023-06-14T08:19:30;6.03;;;2.17;;
77726;SDS011;68312;53.502;10.030;2023-06-14T08:21:56;3.08;;;1.85;;
77726;SDS011;68312;53.502;10.030;2023-06-14T08:24:21;3.55;;;1.90;;
77726;SDS011;68312;53.502;10.030;2023-06-14T08:26:47;7.68;;;2.20;;
77726;SDS011;68312;53.502;10.030;2023-06-14T08:29:12;3.05;;;1.98;;
77726;SDS011;68312;53.502;10.030;2023-06-14T08:31:38;2.97;;;1.92;;
77726;SDS011;68312;53.502;10.030;2023-06-14T08:34:03;4.00;;;2.20;;
77726;SDS011;68312;53.502;10.030;2023-06-14T08:36:29;4.63;;;2.28;;
77726;SDS011;68312;53.502;10.030;2023-06-14T08:38:54;3.10;;;2.03;;
77726;SDS011;68312;53.502;10.030;2023-06-14T08:41:20;10.88;;;2.40;;
77726;SDS011;68312;53.502;10.030;2023-06-14T08:43:47;6.03;;;2.42;;
77726;SDS011;68312;53.502;10.030;2023-06-14T08:46:13;5.30;;;1.95;;
77726;SDS011;68312;53.502;10.030;2023-06-14T08:48:42;8.10;;;2.40;;
77726;SDS011;68312;53.502;10.030;2023-06-14T08:51:08;6.05;;;2.00;;
77726;SDS011;68312;53.502;10.030;2023-06-14T08:53:35;6.63;;;2.30;;
77726;SDS011;68312;53.502;10.030;2023-06-14T08:56:03;4.72;;;2.30;;
77726;SDS011;68312;53.502;10.030;2023-06-14T08:58:30;5.15;;;2.40;;
77726;SDS011;68312;53.502;10.030;2023-06-14T09:01:00;5.90;;;2.17;;
77726;SDS011;68312;53.502;10.030;2023-06-14T09:03:27;4.65;;;2.28;;
77726;SDS011;68312;53.502;10.030;2023-06-14T09:05:52;3.28;;;2.05;;
77726;SDS011;68312;53.502;10.030;2023-06-14T09:08:17;4.68;;;2.25;;
77726;SDS011;68312;53.502;10.030;2023-06-14T09:10:43;3.58;;;2.10;;
77726;SDS011;68312;53.502;10.030;2023-06-14T09:13:09;3.67;;;2.13;;
77726;SDS011;68312;53.502;10.030;2023-06-14T09:15:35;3.72;;;1.90;;
77726;SDS011;68312;53.502;10.030;2023-06-14T09:18:01;6.75;;;2.30;;
77726;SDS011;68312;53.502;10.030;2023-06-14T09:20:28;6.20;;;2.30;;
77726;SDS011;68312;53.502;10.030;2023-06-14T09:22:55;4.70;;;2.13;;
77726;SDS011;68312;53.502;10.030;2023-06-14T09:25:21;5.57;;;2.22;;
77726;SDS011;68312;53.502;10.030;2023-06-14T09:27:46;6.63;;;2.30;;
77726;SDS011;68312;53.502;10.030;2023-06-14T09:30:12;5.22;;;2.45;;
77726;SDS011;68312;53.502;10.030;2023-06-14T09:32:38;6.07;;;2.10;;
77726;SDS011;68312;53.502;10.030;2023-06-14T09:35:08;6.22;;;2.05;;
77726;SDS011;68312;53.502;10.030;2023-06-14T09:37:34;5.47;;;2.40;;
77726;SDS011;68312;53.502;10.030;2023-06-14T09:40:00;4.78;;;2.20;;
77726;SDS011;68312;53.502;10.030;2023-06-14T09:42:28;5.18;;;2.00;;
77726;SDS011;68312;53.502;10.030;2023-06-14T09:44:54;4.32;;;1.77;;
77726;SDS011;68312;53.502;10.030;2023-06-14T09:47:22;5.80;;;2.00;;
77726;SDS011;68312;53.502;10.030;2023-06-14T09:49:50;6.18;;;2.17;;
77726;SDS011;68312;53.502;10.030;2023-06-14T09:52:17;4.72;;;2.20;;
77726;SDS011;68312;53.502;10.030;2023-06-14T09:54:46;6.70;;;2.08;;
77726;SDS011;68312;53.502;10.030;2023-06-14T09:57:14;6.45;;;2.67;;
77726;SDS011;68312;53.502;10.030;2023-06-14T09:59:46;6.23;;;2.17;;
77726;SDS011;68312;53.502;10.030;2023-06-14T10:05:03;6.47;;;1.98;;
77726;SDS011;68312;53.502;10.030;2023-06-14T10:07:38;4.32;;;2.10;;
77726;SDS011;68312;53.502;10.030;2023-06-14T10:10:16;3.97;;;2.40;;
77726;SDS011;68312;53.502;10.030;2023-06-14T10:12:42;8.88;;;2.47;;
77726;SDS011;68312;53.502;10.030;2023-06-14T10:15:09;6.72;;;2.58;;
77726;SDS011;68312;53.502;10.030;2023-06-14T10:17:52;4.85;;;2.22;;
77726;SDS011;68312;53.502;10.030;2023-06-14T10:20:47;7.85;;;2.50;;
77726;SDS011;68312;53.502;10.030;2023-06-14T10:23:33;6.03;;;2.10;;
77726;SDS011;68312;53.502;10.030;2023-06-14T10:26:06;5.13;;;2.10;;
77726;SDS011;68312;53.502;10.030;2023-06-14T10:28:32;4.45;;;2.13;;
77726;SDS011;68312;53.502;10.030;2023-06-14T10:31:11;5.03;;;2.58;;
77726;SDS011;68312;53.502;10.030;2023-06-14T10:33:50;6.57;;;2.58;;
77726;SDS011;68312;53.502;10.030;2023-06-14T10:38:57;6.45;;;2.28;;
77726;SDS011;68312;53.502;10.030;2023-06-14T10:41:39;10.73;;;2.72;;
77726;SDS011;68312;53.502;10.030;2023-06-14T10:46:38;6.75;;;2.17;;
77726;SDS011;68312;53.502;10.030;2023-06-14T10:49:21;8.38;;;2.47;;
77726;SDS011;68312;53.502;10.030;2023-06-14T10:52:13;6.38;;;2.22;;
77726;SDS011;68312;53.502;10.030;2023-06-14T10:54:55;6.32;;;2.30;;
77726;SDS011;68312;53.502;10.030;2023-06-14T10:57:39;4.43;;;2.30;;
77726;SDS011;68312;53.502;10.030;2023-06-14T11:00:08;4.00;;;2.33;;
77726;SDS011;68312;53.502;10.030;2023-06-14T11:05:32;8.98;;;2.70;;
77726;SDS011;68312;53.502;10.030;2023-06-14T11:11:16;5.18;;;2.38;;
77726;SDS011;68312;53.502;10.030;2023-06-14T11:13:46;8.02;;;2.65;;
77726;SDS011;68312;53.502;10.030;2023-06-14T11:16:12;5.25;;;2.30;;
77726;SDS011;68312;53.502;10.030;2023-06-14T11:18:43;4.35;;;2.35;;
77726;SDS011;68312;53.502;10.030;2023-06-14T11:21:10;5.40;;;2.55;;
77726;SDS011;68312;53.502;10.030;2023-06-14T11:23:35;6.15;;;2.58;;
77726;SDS011;68312;53.502;10.030;2023-06-14T11:26:01;5.10;;;2.35;;
77726;SDS011;68312;53.502;10.030;2023-06-14T11:28:39;4.57;;;2.30;;
77726;SDS011;68312;53.502;10.030;2023-06-14T11:31:06;5.07;;;2.28;;
77726;SDS011;68312;53.502;10.030;2023-06-14T11:33:34;6.32;;;2.30;;
77726;SDS011;68312;53.502;10.030;2023-06-14T11:36:03;4.20;;;2.33;;
77726;SDS011;68312;53.502;10.030;2023-06-14T11:38:34;4.97;;;1.90;;
77726;SDS011;68312;53.502;10.030;2023-06-14T11:41:01;6.20;;;2.70;;
77726;SDS011;68312;53.502;10.030;2023-06-14T11:43:26;7.03;;;2.10;;
77726;SDS011;68312;53.502;10.030;2023-06-14T11:45:52;5.63;;;2.30;;
77726;SDS011;68312;53.502;10.030;2023-06-14T11:48:18;7.30;;;2.40;;
77726;SDS011;68312;53.502;10.030;2023-06-14T11:50:43;7.05;;;2.30;;
77726;SDS011;68312;53.502;10.030;2023-06-14T11:53:09;6.35;;;2.10;;
77726;SDS011;68312;53.502;10.030;2023-06-14T11:55:38;6.68;;;2.55;;
77726;SDS011;68312;53.502;10.030;2023-06-14T11:58:04;7.28;;;2.10;;
77726;SDS011;68312;53.502;10.030;2023-06-14T12:00:30;4.60;;;2.08;;
77726;SDS011;68312;53.502;10.030;2023-06-14T12:02:56;6.93;;;1.92;;
77726;SDS011;68312;53.502;10.030;2023-06-14T12:05:22;4.38;;;2.20;;
77726;SDS011;68312;53.502;10.030;2023-06-14T12:07:50;3.70;;;2.30;;
77726;SDS011;68312;53.502;10.030;2023-06-14T12:10:16;5.97;;;2.22;;
77726;SDS011;68312;53.502;10.030;2023-06-14T12:12:41;6.88;;;2.40;;
77726;SDS011;68312;53.502;10.030;2023-06-14T12:15:08;3.83;;;2.55;;
77726;SDS011;68312;53.502;10.030;2023-06-14T12:17:35;7.50;;;2.63;;
77726;SDS011;68312;53.502;10.030;2023-06-14T12:20:06;6.50;;;2.60;;
77726;SDS011;68312;53.502;10.030;2023-06-14T12:22:35;6.28;;;2.42;;
77726;SDS011;68312;53.502;10.030;2023-06-14T12:25:01;3.92;;;2.40;;
77726;SDS011;68312;53.502;10.030;2023-06-14T12:27:26;4.68;;;2.50;;
77726;SDS011;68312;53.502;10.030;2023-06-14T12:29:58;4.60;;;2.38;;
77726;SDS011;68312;53.502;10.030;2023-06-14T12:32:28;6.60;;;2.33;;
77726;SDS011;68312;53.502;10.030;2023-06-14T12:34:54;6.50;;;2.65;;
77726;SDS011;68312;53.502;10.030;2023-06-14T12:37:20;8.15;;;2.67;;
77726;SDS011;68312;53.502;10.030;2023-06-14T12:39:45;6.20;;;2.38;;
77726;SDS011;68312;53.502;10.030;2023-06-14T12:42:11;7.05;;;2.50;;
77726;SDS011;68312;53.502;10.030;2023-06-14T12:44:36;5.13;;;2.40;;
77726;SDS011;68312;53.502;10.030;2023-06-14T12:47:02;6.20;;;2.72;;
77726;SDS011;68312;53.502;10.030;2023-06-14T12:49:27;5.15;;;2.38;;
77726;SDS011;68312;53.502;10.030;2023-06-14T12:51:52;8.80;;;2.70;;
77726;SDS011;68312;53.502;10.030;2023-06-14T12:54:18;8.57;;;3.10;;
77726;SDS011;68312;53.502;10.030;2023-06-14T12:56:43;9.95;;;2.60;;
77726;SDS011;68312;53.502;10.030;2023-06-14T12:59:10;6.88;;;2.80;;
77726;SDS011;68312;53.502;10.030;2023-06-14T13:01:37;4.60;;;2.50;;
77726;SDS011;68312;53.502;10.030;2023-06-14T13:04:03;6.93;;;2.25;;
77726;SDS011;68312;53.502;10.030;2023-06-14T13:06:29;5.68;;;2.30;;
77726;SDS011;68312;53.502;10.030;2023-06-14T13:08:54;8.57;;;2.30;;
77726;SDS011;68312;53.502;10.030;2023-06-14T13:11:20;4.85;;;2.13;;
77726;SDS011;68312;53.502;10.030;2023-06-14T13:13:45;5.07;;;2.55;;
77726;SDS011;68312;53.502;10.030;2023-06-14T13:16:10;5.72;;;2.28;;
77726;SDS011;68312;53.502;10.030;2023-06-14T13:18:36;5.90;;;2.55;;
77726;SDS011;68312;53.502;10.030;2023-06-14T13:21:01;6.13;;;2.40;;
77726;SDS011;68312;53.502;10.030;2023-06-14T13:23:27;4.75;;;2.55;;
77726;SDS011;68312;53.502;10.030;2023-06-14T13:25:52;11.25;;;2.92;;
77726;SDS011;68312;53.502;10.030;2023-06-14T13:28:18;7.20;;;2.60;;
77726;SDS011;68312;53.502;10.030;2023-06-14T13:30:43;5.43;;;2.40;;
77726;SDS011;68312;53.502;10.030;2023-06-14T13:33:09;6.40;;;2.78;;
77726;SDS011;68312;53.502;10.030;2023-06-14T13:35:36;8.48;;;2.40;;
77726;SDS011;68312;53.502;10.030;2023-06-14T13:38:02;8.98;;;2.42;;
77726;SDS011;68312;53.502;10.030;2023-06-14T13:40:27;3.28;;;2.17;;
77726;SDS011;68312;53.502;10.030;2023-06-14T13:42:52;4.90;;;2.50;;
77726;SDS011;68312;53.502;10.030;2023-06-14T13:45:18;9.55;;;2.42;;
77726;SDS011;68312;53.502;10.030;2023-06-14T13:47:43;5.50;;;2.10;;
77726;SDS011;68312;53.502;10.030;2023-06-14T13:50:09;9.63;;;2.53;;
77726;SDS011;68312;53.502;10.030;2023-06-14T13:52:34;4.47;;;2.20;;
77726;SDS011;68312;53.502;10.030;2023-06-14T13:55:00;6.07;;;2.33;;
77726;SDS011;68312;53.502;10.030;2023-06-14T13:57:26;6.90;;;2.10;;
77726;SDS011;68312;53.502;10.030;2023-06-14T13:59:51;7.78;;;2.75;;
77726;SDS011;68312;53.502;10.030;2023-06-14T14:02:17;5.47;;;2.28;;
77726;SDS011;68312;53.502;10.030;2023-06-14T14:04:42;5.05;;;2.05;;
77726;SDS011;68312;53.502;10.030;2023-06-14T14:07:08;3.80;;;2.22;;
77726;SDS011;68312;53.502;10.030;2023-06-14T14:09:34;3.80;;;2.20;;
77726;SDS011;68312;53.502;10.030;2023-06-14T14:12:00;6.68;;;2.17;;
77726;SDS011;68312;53.502;10.030;2023-06-14T14:14:27;4.90;;;2.25;;
77726;SDS011;68312;53.502;10.030;2023-06-14T14:16:54;12.07;;;2.58;;
77726;SDS011;68312;53.502;10.030;2023-06-14T14:19:20;3.15;;;2.10;;
77726;SDS011;68312;53.502;10.030;2023-06-14T14:21:46;3.40;;;2.00;;
77726;SDS011;68312;53.502;10.030;2023-06-14T14:24:12;4.93;;;2.22;;
77726;SDS011;68312;53.502;10.030;2023-06-14T14:26:37;4.32;;;2.10;;
77726;SDS011;68312;53.502;10.030;2023-06-14T14:29:03;8.02;;;2.13;;
77726;SDS011;68312;53.502;10.030;2023-06-14T14:31:28;7.55;;;2.45;;
77726;SDS011;68312;53.502;10.030;2023-06-14T14:33:55;8.98;;;2.55;;
77726;SDS011;68312;53.502;10.030;2023-06-14T14:36:21;4.95;;;2.50;;
77726;SDS011;68312;53.502;10.030;2023-06-14T14:38:46;4.85;;;2.30;;
77726;SDS011;68312;53.502;10.030;2023-06-14T14:41:12;5.90;;;2.22;;
77726;SDS011;68312;53.502;10.030;2023-06-14T14:43:38;8.55;;;2.20;;
77726;SDS011;68312;53.502;10.030;2023-06-14T14:46:04;2.95;;;1.83;;
77726;SDS011;68312;53.502;10.030;2023-06-14T14:48:29;5.90;;;2.17;;